Home > Products > Valid Products > MTR

000
SAUS45 KREV 290357
MTRDRA
METAR KDRA 290352Z AUTO VRB03KT 10SM CLR 19/M09 A3006 RMK AO2 SLP145
T01891089 $





000
SAUS45 KREV 290257
MTRDRA
METAR KDRA 290252Z AUTO 09003KT 10SM CLR 20/M08 A3004 RMK AO2 SLP142
T02001078 53005





000
SAUS45 KREV 290257
MTRDRA
METAR KDRA 290252Z AUTO 09003KT 10SM CLR 20/M08 A3004 RMK AO2 SLP142
T02001078 53005





000
SAUS45 KREV 290157
MTRDRA
METAR KDRA 290152Z AUTO 26006KT 10SM CLR 25/M09 A3003 RMK AO2 SLP138
T02501089





000
SAUS45 KREV 290157
MTRDRA
METAR KDRA 290152Z AUTO 26006KT 10SM CLR 25/M09 A3003 RMK AO2 SLP138
T02501089





000
SAUS45 KREV 290057
MTRDRA
METAR KDRA 290052Z AUTO 24012KT 10SM CLR 28/M10 A3003 RMK AO2 SLP135
T02781100





000
SAUS45 KREV 290057
MTRDRA
METAR KDRA 290052Z AUTO 24012KT 10SM CLR 28/M10 A3003 RMK AO2 SLP135
T02781100





000
SAUS45 KREV 282357
MTRDRA
METAR KDRA 282352Z AUTO 21010G18KT 10SM CLR 29/M12 A3003 RMK AO2
SLP132 T02891117 10294 20244 56015





000
SAUS45 KREV 282357
MTRDRA
METAR KDRA 282352Z AUTO 21010G18KT 10SM CLR 29/M12 A3003 RMK AO2
SLP132 T02891117 10294 20244 56015





000
SAUS45 KREV 282257
MTRDRA
METAR KDRA 282252Z AUTO 23010G22KT 10SM CLR 29/M09 A3004 RMK AO2
SLP136 T02891094





000
SAUS45 KREV 282257
MTRDRA
METAR KDRA 282252Z AUTO 23010G22KT 10SM CLR 29/M09 A3004 RMK AO2
SLP136 T02891094





000
SAUS45 KREV 282157
MTRDRA
METAR KDRA 282152Z AUTO 21013G17KT 10SM CLR 29/M13 A3005 RMK AO2
SLP137 T02941133





000
SAUS45 KREV 282157
MTRDRA
METAR KDRA 282152Z AUTO 21013G17KT 10SM CLR 29/M13 A3005 RMK AO2
SLP137 T02941133





000
SAUS45 KREV 282057
MTRDRA
METAR KDRA 282052Z AUTO 25012G20KT 10SM CLR 29/M07 A3007 RMK AO2
SLP145 T02891067 58019





000
SAUS45 KREV 281957
MTRDRA
METAR KDRA 281952Z AUTO 27006KT 10SM CLR 26/M06 A3011 RMK AO2 SLP160
T02611061





000
SAUS45 KREV 281857
MTRDRA
METAR KDRA 281852Z AUTO VRB05KT 10SM CLR 26/M06 A3013 RMK AO2 SLP166
T02561056





000
SAUS45 KREV 281857
MTRDRA
METAR KDRA 281852Z AUTO VRB05KT 10SM CLR 26/M06 A3013 RMK AO2 SLP166
T02561056





000
SAUS45 KREV 281757
MTRDRA
METAR KDRA 281752Z AUTO 23008KT 10SM CLR 24/M05 A3013 RMK AO2 SLP166
T02441050 10244 20083 50003





000
SAUS45 KREV 281757
MTRDRA
METAR KDRA 281752Z AUTO 23008KT 10SM CLR 24/M05 A3013 RMK AO2 SLP166
T02441050 10244 20083 50003





000
SAUS45 KREV 281657
MTRDRA
METAR KDRA 281652Z AUTO 00000KT 10SM CLR 22/M05 A3014 RMK AO2 SLP171
T02171050





000
SAUS45 KREV 281657
MTRDRA
METAR KDRA 281652Z AUTO 00000KT 10SM CLR 22/M05 A3014 RMK AO2 SLP171
T02171050





000
SAUS45 KREV 281557
MTRDRA
METAR KDRA 281552Z AUTO 09003KT 10SM CLR 17/M04 A3014 RMK AO2 SLP176
T01721044





000
SAUS45 KREV 281557
MTRDRA
METAR KDRA 281552Z AUTO 09003KT 10SM CLR 17/M04 A3014 RMK AO2 SLP176
T01721044





000
SAUS45 KREV 281457
MTRDRA
METAR KDRA 281452Z AUTO 08003KT 10SM CLR 14/M04 A3013 RMK AO2 SLP170
T01391044 51014





000
SAUS45 KREV 281457
MTRDRA
METAR KDRA 281452Z AUTO 08003KT 10SM CLR 14/M04 A3013 RMK AO2 SLP170
T01391044 51014





000
SAUS45 KREV 281401
MTRDRA
METAR KDRA 281352Z AUTO 00000KT 10SM CLR 09/M05 A3011 RMK AO2 SLP166
T00891050





000
SAUS45 KREV 281401
MTRDRA
METAR KDRA 281352Z AUTO 00000KT 10SM CLR 09/M05 A3011 RMK AO2 SLP166
T00891050





000
SAUS45 KREV 281257
MTRDRA
METAR KDRA 281252Z AUTO 14003KT 10SM CLR 09/M06 A3010 RMK AO2 SLP161
T00891056





000
SAUS45 KREV 281257
MTRDRA
METAR KDRA 281252Z AUTO 14003KT 10SM CLR 09/M06 A3010 RMK AO2 SLP161
T00891056





000
SAUS45 KREV 281156
MTRDRA
METAR KDRA 281152Z AUTO 00000KT 10SM CLR 10/M06 A3008 RMK AO2 SLP152
T01001056 10172 20094 56004





000
SAUS45 KREV 281156
MTRDRA
METAR KDRA 281152Z AUTO 00000KT 10SM CLR 10/M06 A3008 RMK AO2 SLP152
T01001056 10172 20094 56004





000
SAUS45 KREV 281057
MTRDRA
METAR KDRA 281052Z AUTO 00000KT 10SM CLR 09/M06 A3008 RMK AO2 SLP153
T00941056





000
SAUS45 KREV 281057
MTRDRA
METAR KDRA 281052Z AUTO 00000KT 10SM CLR 09/M06 A3008 RMK AO2 SLP153
T00941056





000
SAUS45 KREV 280957
MTRDRA
METAR KDRA 280952Z AUTO VRB03KT 10SM CLR 12/M06 A3009 RMK AO2 SLP153
T01221061





000
SAUS45 KREV 280858
MTRDRA
METAR KDRA 280852Z AUTO 10004KT 10SM CLR 14/M07 A3009 RMK AO2 SLP153
T01391067 58003





000
SAUS45 KREV 280757
MTRDRA
METAR KDRA 280752Z AUTO 01005KT 10SM CLR 14/M06 A3010 RMK AO2 SLP158
T01391061 402830083





000
SAUS45 KREV 280757
MTRDRA
METAR KDRA 280752Z AUTO 01005KT 10SM CLR 14/M06 A3010 RMK AO2 SLP158
T01391061 402830083





000
SAUS45 KREV 280657
MTRDRA
METAR KDRA 280652Z AUTO 11004KT 10SM CLR 15/M06 A3010 RMK AO2 SLP156
T01501061





000
SAUS45 KREV 280557
MTRDRA
METAR KDRA 280552Z AUTO 07006KT 10SM CLR 17/M07 A3010 RMK AO2 SLP156
T01721067 10283 20161 51006





000
SAUS45 KREV 280557
MTRDRA
METAR KDRA 280552Z AUTO 07006KT 10SM CLR 17/M07 A3010 RMK AO2 SLP156
T01721067 10283 20161 51006





000
SAUS45 KREV 280457
MTRDRA
METAR KDRA 280452Z AUTO 04003KT 10SM CLR 17/M06 A3010 RMK AO2 SLP158
T01671056





000
SAUS45 KREV 280457
MTRDRA
METAR KDRA 280452Z AUTO 04003KT 10SM CLR 17/M06 A3010 RMK AO2 SLP158
T01671056





000
SAUS45 KREV 280357
MTRDRA
METAR KDRA 280352Z AUTO 00000KT 10SM CLR 18/M06 A3009 RMK AO2 SLP158
T01831056





000
SAUS45 KREV 280357
MTRDRA
METAR KDRA 280352Z AUTO 00000KT 10SM CLR 18/M06 A3009 RMK AO2 SLP158
T01831056





000
SAUS45 KREV 280257
MTRDRA
METAR KDRA 280252Z AUTO 02003KT 10SM CLR 22/M06 A3008 RMK AO2 SLP154
T02171056 55000





000
SAUS45 KREV 280157
MTRDRA
METAR KDRA 280152Z AUTO 27003KT 10SM CLR 25/M07 A3007 RMK AO2 SLP151
T02501067





000
SAUS45 KREV 280157
MTRDRA
METAR KDRA 280152Z AUTO 27003KT 10SM CLR 25/M07 A3007 RMK AO2 SLP151
T02501067





000
SAUS45 KREV 280057
MTRDRA
METAR KDRA 280052Z AUTO 24009KT 10SM CLR 27/M08 A3007 RMK AO2 SLP150
T02721078





000
SAUS45 KREV 272357
MTRDRA
METAR KDRA 272352Z AUTO 26009KT 10SM CLR 28/M08 A3008 RMK AO2 SLP154
T02781078 10283 20233 56021





000
SAUS45 KREV 272357
MTRDRA
METAR KDRA 272352Z AUTO 26009KT 10SM CLR 28/M08 A3008 RMK AO2 SLP154
T02781078 10283 20233 56021





000
SAUS45 KREV 272257
MTRDRA
METAR KDRA 272252Z AUTO 25006KT 10SM CLR 28/M07 A3010 RMK AO2 SLP158
T02781072





000
SAUS45 KREV 272257
MTRDRA
METAR KDRA 272252Z AUTO 25006KT 10SM CLR 28/M07 A3010 RMK AO2 SLP158
T02781072





000
SAUS45 KREV 272157
MTRDRA
METAR KDRA 272152Z AUTO 23010KT 10SM CLR 28/M06 A3012 RMK AO2 SLP166
T02781056





000
SAUS45 KREV 272157
MTRDRA
METAR KDRA 272152Z AUTO 23010KT 10SM CLR 28/M06 A3012 RMK AO2 SLP166
T02781056





000
SAUS45 KREV 272057
MTRDRA
METAR KDRA 272052Z AUTO 23006KT 10SM CLR 27/M06 A3015 RMK AO2 SLP177
T02671056 58020





000
SAUS45 KREV 271957
MTRDRA
METAR KDRA 271952Z AUTO 27007KT 10SM CLR 26/M06 A3018 RMK AO2 SLP185
T02611056





000
SAUS45 KREV 271957
MTRDRA
METAR KDRA 271952Z AUTO 27007KT 10SM CLR 26/M06 A3018 RMK AO2 SLP185
T02611056





000
SAUS45 KREV 271857
MTRDRA
METAR KDRA 271852Z AUTO VRB03KT 10SM CLR 26/M05 A3020 RMK AO2 SLP192
T02611050





000
SAUS45 KREV 271857
MTRDRA
METAR KDRA 271852Z AUTO VRB03KT 10SM CLR 26/M05 A3020 RMK AO2 SLP192
T02611050





000
SAUS45 KREV 271757
MTRDRA
METAR KDRA 271752Z AUTO VRB03KT 10SM CLR 23/M05 A3022 RMK AO2 SLP199
T02331050 10239 20083 50000





000
SAUS45 KREV 271757
MTRDRA
METAR KDRA 271752Z AUTO VRB03KT 10SM CLR 23/M05 A3022 RMK AO2 SLP199
T02331050 10239 20083 50000





000
SAUS45 KREV 271657
MTRDRA
METAR KDRA 271652Z AUTO 00000KT 10SM CLR 22/M04 A3023 RMK AO2 SLP201
T02171044





000
SAUS45 KREV 271657
MTRDRA
METAR KDRA 271652Z AUTO 00000KT 10SM CLR 22/M04 A3023 RMK AO2 SLP201
T02171044





000
SAUS45 KREV 271557
MTRDRA
METAR KDRA 271552Z AUTO 00000KT 10SM CLR 18/M03 A3022 RMK AO2 SLP202
T01831028





000
SAUS45 KREV 271457
MTRDRA
METAR KDRA 271452Z AUTO 00000KT 10SM CLR 14/M03 A3022 RMK AO2 SLP204
T01391028 53008





000
SAUS45 KREV 271457
MTRDRA
METAR KDRA 271452Z AUTO 00000KT 10SM CLR 14/M03 A3022 RMK AO2 SLP204
T01391028 53008





000
SAUS45 KREV 271401
MTRDRA
METAR KDRA 271352Z AUTO 34004KT 10SM CLR 09/M04 A3020 RMK AO2 SLP200
T00941039





000
SAUS45 KREV 271401
MTRDRA
METAR KDRA 271352Z AUTO 34004KT 10SM CLR 09/M04 A3020 RMK AO2 SLP200
T00941039





000
SAUS45 KREV 271257
MTRDRA
METAR KDRA 271252Z AUTO 03004KT 10SM CLR 11/M04 A3019 RMK AO2 SLP193
T01061039





000
SAUS45 KREV 271257
MTRDRA
METAR KDRA 271252Z AUTO 03004KT 10SM CLR 11/M04 A3019 RMK AO2 SLP193
T01061039





000
SAUS45 KREV 271157
MTRDRA
METAR KDRA 271152Z AUTO 00000KT 10SM CLR 09/M04 A3019 RMK AO2 SLP194
T00891039 10150 20083 56006





000
SAUS45 KREV 271057
MTRDRA
METAR KDRA 271052Z AUTO 07003KT 10SM CLR 10/M04 A3020 RMK AO2 SLP193
T01001039





000
SAUS45 KREV 271057
MTRDRA
METAR KDRA 271052Z AUTO 07003KT 10SM CLR 10/M04 A3020 RMK AO2 SLP193
T01001039





000
SAUS45 KREV 270957
MTRDRA
METAR KDRA 270952Z AUTO 00000KT 10SM CLR 11/M04 A3020 RMK AO2 SLP196
T01061044





000
SAUS45 KREV 270857
MTRDRA
METAR KDRA 270852Z AUTO 00000KT 10SM CLR 11/M04 A3021 RMK AO2 SLP200
T01111044 51001





000
SAUS45 KREV 270857
MTRDRA
METAR KDRA 270852Z AUTO 00000KT 10SM CLR 11/M04 A3021 RMK AO2 SLP200
T01111044 51001





000
SAUS45 KREV 270756
MTRDRA
METAR KDRA 270752Z AUTO 00000KT 10SM CLR 12/M04 A3021 RMK AO2 SLP200
T01221044 402670100





000
SAUS45 KREV 270756
MTRDRA
METAR KDRA 270752Z AUTO 00000KT 10SM CLR 12/M04 A3021 RMK AO2 SLP200
T01221044 402670100





000
SAUS45 KREV 270657
MTRDRA
METAR KDRA 270652Z AUTO 16003KT 10SM CLR 14/M05 A3021 RMK AO2 SLP199
T01391050





000
SAUS45 KREV 270657
MTRDRA
METAR KDRA 270652Z AUTO 16003KT 10SM CLR 14/M05 A3021 RMK AO2 SLP199
T01391050





000
SAUS45 KREV 270557
MTRDRA
METAR KDRA 270552Z AUTO 33006KT 10SM CLR 15/M04 A3021 RMK AO2 SLP197
T01501044 10256 20144 51013





000
SAUS45 KREV 270557
MTRDRA
METAR KDRA 270552Z AUTO 33006KT 10SM CLR 15/M04 A3021 RMK AO2 SLP197
T01501044 10256 20144 51013





000
SAUS45 KREV 270456
MTRDRA
METAR KDRA 270452Z AUTO 08007KT 10SM CLR 18/M06 A3020 RMK AO2 SLP193
T01781056





000
SAUS45 KREV 270456
MTRDRA
METAR KDRA 270452Z AUTO 08007KT 10SM CLR 18/M06 A3020 RMK AO2 SLP193
T01781056





000
SAUS45 KREV 270357
MTRDRA
METAR KDRA 270352Z AUTO 09005KT 10SM CLR 18/M06 A3018 RMK AO2 SLP190
T01781056





000
SAUS45 KREV 270257
MTRDRA
METAR KDRA 270252Z AUTO 11007KT 10SM CLR 19/M06 A3017 RMK AO2 SLP185
T01941056 53004





000
SAUS45 KREV 270157
MTRDRA
METAR KDRA 270152Z AUTO 12010KT 10SM CLR 23/M07 A3015 RMK AO2 SLP181
T02281067





000
SAUS45 KREV 270057
MTRDRA
METAR KDRA 270052Z AUTO 13012KT 10SM CLR 25/M07 A3015 RMK AO2 SLP176
T02501067





000
SAUS45 KREV 270057
MTRDRA
METAR KDRA 270052Z AUTO 13012KT 10SM CLR 25/M07 A3015 RMK AO2 SLP176
T02501067





000
SAUS45 KREV 262357
MTRDRA
METAR KDRA 262352Z AUTO 14009KT 10SM CLR 25/M06 A3015 RMK AO2 SLP177
T02501061 10267 20217 56022





000
SAUS45 KREV 262357
MTRDRA
METAR KDRA 262352Z AUTO 14009KT 10SM CLR 25/M06 A3015 RMK AO2 SLP177
T02501061 10267 20217 56022





000
SAUS45 KREV 262257
MTRDRA
METAR KDRA 262252Z AUTO 10012G21KT 050V110 10SM CLR 26/M06 A3017 RMK
AO2 SLP182 T02611061





000
SAUS45 KREV 262257
MTRDRA
METAR KDRA 262252Z AUTO 10012G21KT 050V110 10SM CLR 26/M06 A3017 RMK
AO2 SLP182 T02611061





000
SAUS45 KREV 262157
MTRDRA
METAR KDRA 262152Z AUTO 35006KT 10SM CLR 25/M06 A3019 RMK AO2 SLP189
T02501061





000
SAUS45 KREV 262057
MTRDRA
METAR KDRA 262052Z AUTO 12009G15KT 090V150 10SM CLR 23/M06 A3023 RMK
AO2 SLP202 T02331061 58020





000
SAUS45 KREV 262057
MTRDRA
METAR KDRA 262052Z AUTO 12009G15KT 090V150 10SM CLR 23/M06 A3023 RMK
AO2 SLP202 T02331061 58020





000
SAUS45 KREV 261957
MTRDRA
METAR KDRA 261952Z AUTO 04009G14KT 10SM CLR 22/M06 A3025 RMK AO2
SLP213 T02221056





000
SAUS45 KREV 261957
MTRDRA
METAR KDRA 261952Z AUTO 04009G14KT 10SM CLR 22/M06 A3025 RMK AO2
SLP213 T02221056





000
SAUS45 KREV 261857
MTRDRA
METAR KDRA 261852Z AUTO 07010G15KT 030V090 10SM CLR 23/M07 A3027 RMK
AO2 SLP219 T02281067





000
SAUS45 KREV 261757
MTRDRA
METAR KDRA 261752Z AUTO 06010KT 10SM CLR 22/M06 A3029 RMK AO2 SLP225
T02171061 10217 20100 58001





000
SAUS45 KREV 261757
MTRDRA
METAR KDRA 261752Z AUTO 06010KT 10SM CLR 22/M06 A3029 RMK AO2 SLP225
T02171061 10217 20100 58001





000
SAUS45 KREV 261657
MTRDRA
METAR KDRA 261652Z AUTO 02016KT 10SM CLR 19/M06 A3030 RMK AO2 SLP230
T01891061





000
SAUS45 KREV 261657
MTRDRA
METAR KDRA 261652Z AUTO 02016KT 10SM CLR 19/M06 A3030 RMK AO2 SLP230
T01891061





000
SAUS45 KREV 261559 COR
MTRDRA
METAR KDRA 261552Z AUTO VRB03KT 10SM CLR 17/M06 A3030 RMK AO2 SLP229
T01671056





000
SAUS45 KREV 261559 COR
MTRDRA
METAR KDRA 261552Z AUTO VRB03KT 10SM CLR 17/M06 A3030 RMK AO2 SLP229
T01671056





000
SAUS45 KREV 261558 COR
MTRDRA
METAR KDRA 261552Z AUTO VRB03KT 10SM CLR 17/M06 A3030 RMK AO2 SLP229
T01671056





000
SAUS45 KREV 261557 COR
MTRDRA
METAR KDRA 261552Z AUTO VRB03KT 10SM CLR 17/M06 A3030 RMK AO2 SLP229
T01671056





000
SAUS45 KREV 261557
MTRDRA
METAR KDRA 261552Z AUTO VRB03KT 10SM CLR 17/M06 A3030 RMK AO2 SLP229
T01671056





000
SAUS45 KREV 261457
MTRDRA
METAR KDRA 261452Z AUTO 00000KT 10SM CLR 14/M04 A3030 RMK AO2 SLP231
T01441044 53015





000
SAUS45 KREV 261401
MTRDRA
METAR KDRA 261352Z AUTO 12003KT 10SM CLR 10/M05 A3028 RMK AO2 SLP227
T01001050





000
SAUS45 KREV 261257
MTRDRA
METAR KDRA 261252Z AUTO 02010KT 10SM CLR 12/M04 A3026 RMK AO2 SLP216
T01221044





000
SAUS45 KREV 261257
MTRDRA
METAR KDRA 261252Z AUTO 02010KT 10SM CLR 12/M04 A3026 RMK AO2 SLP216
T01221044





000
SAUS45 KREV 261157
MTRDRA
METAR KDRA 261152Z AUTO 10010KT 10SM CLR 13/M05 A3025 RMK AO2 SLP210
T01331050 10156 20122 53007





000
SAUS45 KREV 261157
MTRDRA
METAR KDRA 261152Z AUTO 10010KT 10SM CLR 13/M05 A3025 RMK AO2 SLP210
T01331050 10156 20122 53007





000
SAUS45 KREV 261057
MTRDRA
METAR KDRA 261052Z AUTO 09005KT 10SM CLR 13/M05 A3023 RMK AO2 SLP206
T01281050





000
SAUS45 KREV 261057
MTRDRA
METAR KDRA 261052Z AUTO 09005KT 10SM CLR 13/M05 A3023 RMK AO2 SLP206
T01281050





000
SAUS45 KREV 260957
MTRDRA
METAR KDRA 260952Z AUTO VRB05KT 10SM CLR 13/M05 A3022 RMK AO2 SLP202
T01331050





000
SAUS45 KREV 260857
MTRDRA
METAR KDRA 260852Z AUTO 08005KT 10SM CLR 14/M05 A3023 RMK AO2 SLP204
T01391050 53003





000
SAUS45 KREV 260857
MTRDRA
METAR KDRA 260852Z AUTO 08005KT 10SM CLR 14/M05 A3023 RMK AO2 SLP204
T01391050 53003





000
SAUS45 KREV 260757
MTRDRA
METAR KDRA 260752Z AUTO 11003KT 10SM CLR 14/M06 A3022 RMK AO2 SLP203
T01391056 402440106





000
SAUS45 KREV 260757
MTRDRA
METAR KDRA 260752Z AUTO 11003KT 10SM CLR 14/M06 A3022 RMK AO2 SLP203
T01391056 402440106





000
SAUS45 KREV 260657
MTRDRA
METAR KDRA 260652Z AUTO 06007KT 10SM CLR 14/M05 A3022 RMK AO2 SLP204
T01391050





000
SAUS45 KREV 260657
MTRDRA
METAR KDRA 260652Z AUTO 06007KT 10SM CLR 14/M05 A3022 RMK AO2 SLP204
T01391050





000
SAUS45 KREV 260557
MTRDRA
METAR KDRA 260552Z AUTO 05009KT 10SM CLR 16/M06 A3022 RMK AO2 SLP202
T01561056 10239 20156 51015





000
SAUS45 KREV 260557
MTRDRA
METAR KDRA 260552Z AUTO 05009KT 10SM CLR 16/M06 A3022 RMK AO2 SLP202
T01561056 10239 20156 51015





000
SAUS45 KREV 260457
MTRDRA
METAR KDRA 260452Z AUTO 03010KT 10SM CLR 16/M06 A3021 RMK AO2 SLP202
T01611056





    US Dept of Commerce
    National Oceanic and Atmospheric Administration
    National Weather Service
    1325 East West Highway
    Silver Spring, MD 20910
    Page Author: NWS Internet Services Team
Disclaimer
Information Quality
Credits
Glossary
Privacy Policy
Freedom of Information Act (FOIA)
About Us
Career Opportunities